Time;durP1;ratioP1;P1;durP2;ratioP2;P2;SDS_P1;SDS_P2;PMS_P1;PMS_P2;Temp;Humidity;BMP_temperature;BMP_pressure;BME280_temperature;BME280_humidity;BME280_pressure;Samples;Min_cycle;Max_cycle;Signal;HPM_P1;HPM_P2
2022/11/02 00:00:47;;;;;;;8.73;2.47;;;10.00;1.00;;;;;;5072134;28;20452;-54
2022/11/02 00:03:13;;;;;;;6.50;2.03;;;9.90;1.00;;;;;;5072968;28;20880;-53
2022/11/02 00:05:38;;;;;;;5.53;2.13;;;10.10;1.00;;;;;;5072618;28;20387;-55
2022/11/02 00:08:04;;;;;;;8.50;1.90;;;10.10;1.00;;;;;;5071901;28;20441;-53
2022/11/02 00:10:30;;;;;;;6.40;1.90;;;10.10;1.00;;;;;;5073209;28;20383;-54
2022/11/02 00:12:56;;;;;;;7.50;2.20;;;10.00;1.00;;;;;;5071997;28;20779;-53
2022/11/02 00:15:24;;;;;;;7.18;2.22;;;10.00;1.00;;;;;;5072704;28;20408;-54
2022/11/02 00:17:53;;;;;;;5.97;1.80;;;11.10;1.00;;;;;;5072232;28;20398;-53
2022/11/02 00:20:20;;;;;;;5.38;1.98;;;9.90;1.00;;;;;;5072580;28;20393;-53
2022/11/02 00:22:49;;;;;;;7.38;1.83;;;10.00;1.00;;;;;;5071465;28;20744;-53
2022/11/02 00:25:17;;;;;;;7.28;2.20;;;9.90;99.90;;;;;;5072551;28;20458;-54
2022/11/02 00:27:43;;;;;;;7.30;1.95;;;9.90;1.00;;;;;;5071646;28;20383;-56
2022/11/02 00:30:09;;;;;;;6.18;1.88;;;9.80;1.00;;;;;;5071236;28;20918;-53
2022/11/02 00:32:35;;;;;;;10.90;2.70;;;9.80;99.90;;;;;;5072101;28;20403;-53
2022/11/02 00:35:01;;;;;;;6.20;2.10;;;9.80;99.90;;;;;;5071429;28;20605;-53
2022/11/02 00:37:26;;;;;;;10.70;3.40;;;9.70;1.00;;;;;;5072116;28;20770;-54
2022/11/02 00:39:52;;;;;;;10.23;3.10;;;10.70;1.00;;;;;;5071347;28;20540;-53
2022/11/02 00:42:17;;;;;;;8.85;3.55;;;9.70;1.00;;;;;;5072068;28;20372;-53
2022/11/02 00:44:43;;;;;;;8.03;3.47;;;9.70;1.00;;;;;;5071669;28;20399;-55
2022/11/02 00:47:10;;;;;;;12.27;3.45;;;9.70;1.00;;;;;;5071741;28;20388;-53
2022/11/02 00:49:36;;;;;;;7.53;3.10;;;9.70;1.00;;;;;;5071890;28;20861;-53
2022/11/02 00:52:02;;;;;;;7.00;2.73;;;9.70;1.00;;;;;;5071490;28;20394;-53
2022/11/02 00:54:27;;;;;;;9.35;2.83;;;9.70;1.00;;;;;;5054031;28;20407;-53
2022/11/02 00:56:53;;;;;;;9.50;3.00;;;9.70;1.00;;;;;;5071399;28;20395;-53
2022/11/02 00:59:19;;;;;;;9.73;3.88;;;9.60;1.00;;;;;;5070719;28;20829;-53
2022/11/02 01:01:46;;;;;;;10.70;3.50;;;9.60;1.00;;;;;;5071098;28;20423;-55
2022/11/02 01:04:16;;;;;;;11.95;3.33;;;9.60;1.00;;;;;;5071354;28;20380;-54
2022/11/02 01:06:44;;;;;;;7.90;3.13;;;9.50;1.00;;;;;;5071442;28;20382;-55
2022/11/02 01:09:10;;;;;;;10.00;2.40;;;9.50;1.00;;;;;;5071824;28;20441;-53
2022/11/02 01:11:36;;;;;;;7.40;2.60;;;9.50;1.00;;;;;;5071937;28;20387;-53
2022/11/02 01:14:03;;;;;;;6.90;2.05;;;9.50;1.00;;;;;;5071078;28;20392;-53
2022/11/02 01:16:29;;;;;;;9.10;2.30;;;9.50;1.00;;;;;;5071528;28;20472;-53
2022/11/02 01:18:55;;;;;;;6.25;1.80;;;9.60;1.00;;;;;;5070614;28;20773;-53
2022/11/02 01:21:21;;;;;;;8.52;1.80;;;9.60;1.00;;;;;;5071695;28;20384;-53
2022/11/02 01:23:47;;;;;;;6.47;1.90;;;9.60;1.00;;;;;;5070442;28;20843;-53
2022/11/02 01:26:13;;;;;;;8.80;2.60;;;9.70;1.00;;;;;;5071105;28;20419;-54
2022/11/02 01:28:39;;;;;;;6.30;1.87;;;9.70;1.00;;;;;;5071294;28;20871;-53
2022/11/02 01:31:05;;;;;;;7.63;2.17;;;9.90;1.00;;;;;;5070248;28;20394;-53
2022/11/02 01:33:32;;;;;;;6.13;1.60;;;10.00;1.00;;;;;;5070649;28;20408;-53
2022/11/02 01:36:00;;;;;;;5.75;1.90;;;10.30;1.00;;;;;;5070299;28;20427;-53
2022/11/02 01:38:26;;;;;;;7.07;1.90;;;10.10;1.00;;;;;;5071236;28;20396;-53
2022/11/02 01:40:51;;;;;;;8.18;1.73;;;10.10;1.00;;;;;;5070333;28;20383;-53
2022/11/02 01:43:24;;;;;;;5.65;1.70;;;10.20;1.00;;;;;;5070695;28;20459;-53
2022/11/02 01:46:10;;;;;;;6.78;1.70;;;10.20;1.00;;;;;;5070160;28;20392;-54
2022/11/02 01:48:42;;;;;;;10.90;2.10;;;10.30;1.00;;;;;;5070666;28;20383;-54
2022/11/02 01:51:11;;;;;;;8.20;1.67;;;10.40;1.00;;;;;;5070554;28;20873;-53
2022/11/02 01:53:41;;;;;;;6.88;1.60;;;10.40;1.00;;;;;;5070918;28;20387;-53
2022/11/02 01:56:09;;;;;;;6.88;1.50;;;10.40;1.00;;;;;;5070148;28;20423;-54
2022/11/02 01:58:35;;;;;;;7.20;1.80;;;10.50;1.00;;;;;;5070574;28;20477;-53
2022/11/02 02:01:01;;;;;;;7.00;1.50;;;10.60;1.00;;;;;;5068656;28;20391;-53
2022/11/02 02:03:30;;;;;;;7.47;1.50;;;10.70;1.00;;;;;;5070632;28;20396;-53
2022/11/02 02:06:00;;;;;;;7.25;1.60;;;10.70;99.90;;;;;;5069926;28;20387;-54
2022/11/02 02:08:27;;;;;;;7.20;1.60;;;10.70;99.90;;;;;;5070173;28;20426;-53
2022/11/02 02:10:56;;;;;;;5.72;1.30;;;10.80;1.00;;;;;;5069136;28;20379;-53
2022/11/02 02:13:23;;;;;;;8.13;1.45;;;10.80;99.90;;;;;;5069932;28;20475;-54
2022/11/02 02:16:27;;;;;;;7.35;1.60;;;10.80;99.90;;;;;;5069518;28;20490;-53
2022/11/02 02:18:58;;;;;;;8.60;1.50;;;10.80;99.90;;;;;;5028182;28;20388;-53
2022/11/02 02:22:06;;;;;;;7.10;1.50;;;10.90;99.90;;;;;;5070569;28;20410;-53
2022/11/02 02:25:04;;;;;;;6.07;1.38;;;10.90;99.90;;;;;;5032190;28;20414;-53
2022/11/02 02:27:47;;;;;;;10.50;1.70;;;11.00;99.90;;;;;;5069992;28;20417;-53
2022/11/02 02:30:15;;;;;;;5.30;1.47;;;11.00;99.90;;;;;;5070630;28;20808;-53
2022/11/02 02:33:04;;;;;;;7.60;1.55;;;11.00;99.90;;;;;;5069842;28;20498;-53
2022/11/02 02:35:56;;;;;;;6.53;1.40;;;11.00;99.90;;;;;;5070105;28;20421;-54
2022/11/02 02:38:32;;;;;;;6.40;1.50;;;11.10;99.90;;;;;;5070171;28;20471;-54
2022/11/02 02:41:08;;;;;;;7.20;1.70;;;11.10;99.90;;;;;;5069419;28;20838;-53
2022/11/02 02:43:43;;;;;;;5.70;1.40;;;11.20;99.90;;;;;;5070088;28;20368;-53
2022/11/02 02:46:18;;;;;;;10.85;1.45;;;11.20;20.10;;;;;;5069235;28;20380;-54
2022/11/02 02:48:46;;;;;;;7.47;1.53;;;11.20;42.10;;;;;;5069944;28;20376;-55
2022/11/02 02:51:19;;;;;;;7.27;1.50;;;11.20;28.50;;;;;;5069767;28;20374;-53
2022/11/02 02:53:49;;;;;;;9.40;1.70;;;11.00;99.90;;;;;;5069141;28;20406;-56
2022/11/02 02:56:19;;;;;;;7.82;1.30;;;11.10;99.90;;;;;;5069899;28;20414;-53
2022/11/02 02:58:51;;;;;;;5.82;1.70;;;11.10;99.90;;;;;;5069812;28;20865;-55
2022/11/02 03:01:18;;;;;;;9.40;1.60;;;11.20;69.80;;;;;;5069841;28;20370;-54
2022/11/02 03:03:44;;;;;;;6.20;1.60;;;11.20;68.90;;;;;;5069535;28;20391;-56
2022/11/02 03:06:28;;;;;;;5.50;1.60;;;11.10;82.90;;;;;;5069007;28;20384;-54
2022/11/02 03:09:24;;;;;;;5.65;1.92;;;11.00;89.30;;;;;;5067400;28;20407;-54
2022/11/02 03:12:00;;;;;;;6.60;1.70;;;11.00;99.90;;;;;;5068182;28;20433;-54
2022/11/02 03:14:35;;;;;;;9.60;1.50;;;11.00;99.90;;;;;;5069166;28;20380;-54
2022/11/02 03:17:12;;;;;;;6.40;1.92;;;11.10;99.90;;;;;;5066971;28;20375;-53
2022/11/02 03:19:49;;;;;;;6.03;1.40;;;11.20;99.90;;;;;;5067403;28;20470;-53
2022/11/02 03:22:36;;;;;;;5.30;1.45;;;11.20;99.90;;;;;;5066678;28;20920;-53
2022/11/02 03:25:22;;;;;;;6.15;1.45;;;11.30;99.90;;;;;;5066890;28;20998;-53
2022/11/02 03:28:02;;;;;;;6.20;1.40;;;11.30;70.70;;;;;;5067428;28;20376;-54
2022/11/02 03:30:34;;;;;;;7.80;1.33;;;11.30;99.90;;;;;;5069114;28;20518;-53
2022/11/02 03:33:11;;;;;;;11.37;1.70;;;11.30;99.90;;;;;;5066267;28;20504;-53
2022/11/02 03:35:50;;;;;;;6.68;1.52;;;11.20;99.90;;;;;;5066708;28;20482;-54
2022/11/02 03:38:24;;;;;;;4.85;1.27;;;11.30;99.90;;;;;;5066766;28;20387;-55
2022/11/02 03:40:53;;;;;;;7.65;1.38;;;11.20;99.90;;;;;;5068444;28;20375;-52
2022/11/02 03:43:20;;;;;;;6.53;1.30;;;11.20;99.90;;;;;;5068919;28;20407;-51
2022/11/02 03:45:53;;;;;;;7.50;1.50;;;11.20;99.90;;;;;;5068780;28;20395;-54
2022/11/02 03:48:22;;;;;;;7.40;1.50;;;11.10;99.90;;;;;;5067053;28;20395;-55
2022/11/02 03:50:50;;;;;;;4.90;1.20;;;11.00;99.90;;;;;;5068207;28;20376;-56
2022/11/02 03:53:36;;;;;;;5.65;1.75;;;11.10;99.90;;;;;;5066354;28;20384;-54
2022/11/02 03:56:11;;;;;;;6.10;1.48;;;11.10;99.90;;;;;;5066641;28;20812;-54
2022/11/02 03:58:36;;;;;;;11.10;1.90;;;11.20;99.90;;;;;;5066793;28;20391;-53
2022/11/02 04:01:07;;;;;;;10.17;1.90;;;11.10;99.90;;;;;;5068267;28;20725;-53
2022/11/02 04:03:33;;;;;;;6.90;1.50;;;11.10;99.90;;;;;;5068931;28;20384;-53
2022/11/02 04:05:59;;;;;;;7.10;1.40;;;11.10;99.90;;;;;;5071052;28;20380;-51
2022/11/02 04:08:38;;;;;;;5.97;1.48;;;11.10;99.90;;;;;;5072187;28;20371;-51
2022/11/02 04:16:33;;;;;;;6.32;1.30;;;11.00;99.90;;;;;;5072030;28;20408;-53
2022/11/02 04:25:14;;;;;;;6.32;1.50;;;11.00;99.90;;;;;;5070175;28;20437;-54
2022/11/02 04:27:12;;;;;;;5.55;1.33;;;11.00;99.90;;;;;;5071356;28;20418;-54
2022/11/02 04:29:38;;;;;;;8.67;1.50;;;11.00;23.30;;;;;;5072166;28;20388;-53
2022/11/02 04:32:03;;;;;;;6.40;1.30;;;10.90;99.90;;;;;;5071161;28;21222;-53
2022/11/02 04:34:29;;;;;;;6.18;1.50;;;10.90;99.90;;;;;;5072080;28;20383;-54
2022/11/02 04:36:54;;;;;;;7.40;1.60;;;10.90;99.90;;;;;;5071325;28;20875;-53
2022/11/02 04:39:20;;;;;;;6.15;1.50;;;10.80;99.90;;;;;;5072527;28;20433;-54
2022/11/02 04:41:46;;;;;;;5.90;1.70;;;10.80;99.90;;;;;;5067136;28;20395;-56
2022/11/02 04:44:16;;;;;;;5.70;1.40;;;10.90;99.90;;;;;;5063622;28;20451;-54
2022/11/02 04:46:43;;;;;;;6.90;1.50;;;10.80;99.90;;;;;;5058162;28;20388;-53
2022/11/02 04:49:10;;;;;;;6.85;1.40;;;10.80;99.90;;;;;;5051320;28;20484;-53
2022/11/02 04:51:36;;;;;;;7.03;1.50;;;10.90;99.90;;;;;;5058048;28;20396;-54
2022/11/02 04:54:02;;;;;;;10.38;1.90;;;12.40;99.90;;;;;;5066659;28;20384;-54
2022/11/02 04:56:28;;;;;;;6.50;1.50;;;10.80;99.90;;;;;;5071266;28;20750;-54
2022/11/02 04:58:57;;;;;;;7.00;1.50;;;10.90;99.90;;;;;;5070608;28;20395;-53
2022/11/02 05:01:24;;;;;;;9.20;1.60;;;10.80;94.70;;;;;;5062042;28;20424;-53
2022/11/02 05:03:51;;;;;;;5.45;1.15;;;10.80;99.90;;;;;;5070561;28;20391;-56
2022/11/02 05:06:19;;;;;;;6.38;1.40;;;10.90;27.40;;;;;;5071563;28;20386;-53
2022/11/02 05:08:44;;;;;;;7.82;1.50;;;10.90;1.00;;;;;;5068607;28;20780;-53
2022/11/02 05:11:11;;;;;;;7.13;1.40;;;11.00;1.00;;;;;;5067125;28;20383;-53
2022/11/02 05:13:38;;;;;;;6.20;1.45;;;11.00;1.00;;;;;;5036772;28;20392;-53
2022/11/02 05:16:04;;;;;;;11.20;1.60;;;11.00;1.00;;;;;;5050068;28;20763;-52
2022/11/02 05:18:30;;;;;;;7.30;1.65;;;10.90;1.00;;;;;;5051180;28;20751;-52
2022/11/02 05:20:58;;;;;;;7.10;1.58;;;10.90;1.00;;;;;;5050633;28;20452;-52
2022/11/02 05:23:24;;;;;;;7.00;1.48;;;10.90;1.00;;;;;;5051866;28;20433;-52
2022/11/02 05:26:04;;;;;;;6.03;1.42;;;11.00;1.00;;;;;;5057253;28;20403;-55
2022/11/02 05:28:31;;;;;;;6.97;1.40;;;11.00;99.90;;;;;;5071323;28;20384;-53
2022/11/02 05:31:01;;;;;;;7.13;1.60;;;10.90;99.90;;;;;;5070002;28;20737;-53
2022/11/02 05:33:28;;;;;;;8.32;1.52;;;11.00;99.90;;;;;;5071239;28;20502;-53
2022/11/02 05:35:55;;;;;;;6.47;1.73;;;10.90;99.90;;;;;;5070346;28;20406;-53
2022/11/02 05:38:22;;;;;;;5.10;1.35;;;10.80;1.00;;;;;;5070896;28;20380;-53
2022/11/02 05:40:52;;;;;;;7.00;1.50;;;10.70;1.00;;;;;;5066231;28;20484;-55
2022/11/02 05:43:17;;;;;;;7.32;1.52;;;10.70;1.00;;;;;;5068512;28;20833;-54
2022/11/02 05:45:43;;;;;;;7.03;1.85;;;10.70;1.00;;;;;;5070953;28;20449;-53
2022/11/02 05:48:09;;;;;;;6.87;1.80;;;10.80;1.00;;;;;;5065891;28;20481;-53
2022/11/02 05:50:34;;;;;;;6.47;1.60;;;10.70;1.00;;;;;;5068158;28;20412;-53
2022/11/02 05:53:00;;;;;;;6.77;1.43;;;10.60;1.00;;;;;;5068007;28;20458;-53
2022/11/02 05:55:26;;;;;;;8.03;1.80;;;10.60;1.00;;;;;;5066853;28;20410;-53
2022/11/02 05:57:53;;;;;;;7.67;1.90;;;10.60;51.30;;;;;;5069965;28;20384;-53
2022/11/02 06:00:20;;;;;;;8.80;1.70;;;10.60;99.90;;;;;;5066200;28;20382;-53
2022/11/02 06:02:47;;;;;;;8.20;1.80;;;10.60;77.40;;;;;;5069619;28;20881;-55
2022/11/02 06:05:12;;;;;;;7.30;1.73;;;10.60;99.90;;;;;;5069777;28;20495;-53
2022/11/02 06:07:38;;;;;;;7.25;1.80;;;10.60;99.90;;;;;;5070337;28;20491;-54
2022/11/02 06:10:04;;;;;;;6.37;1.83;;;10.60;1.00;;;;;;5070005;28;20380;-53
2022/11/02 06:12:30;;;;;;;9.20;1.95;;;10.60;1.00;;;;;;5070420;28;20411;-53
2022/11/02 06:14:55;;;;;;;6.47;2.20;;;10.50;33.80;;;;;;5069279;28;20880;-53
2022/11/02 06:17:21;;;;;;;10.85;2.10;;;12.20;99.90;;;;;;5070572;28;20395;-53
2022/11/02 06:19:46;;;;;;;7.00;1.70;;;10.30;99.90;;;;;;5070045;28;20384;-55
2022/11/02 06:22:12;;;;;;;7.88;1.83;;;10.30;1.00;;;;;;5069730;28;20775;-53
2022/11/02 06:24:38;;;;;;;6.30;1.70;;;10.20;1.00;;;;;;5070260;28;20388;-53
2022/11/02 06:27:04;;;;;;;6.80;1.97;;;10.30;1.00;;;;;;5069813;28;20475;-53
2022/11/02 06:29:29;;;;;;;7.30;1.63;;;10.30;1.00;;;;;;5069303;28;20382;-53
2022/11/02 06:31:55;;;;;;;13.03;2.90;;;10.30;1.00;;;;;;5069286;28;20411;-53
2022/11/02 06:34:20;;;;;;;9.25;2.67;;;10.40;1.00;;;;;;5062315;28;20439;-53
2022/11/02 06:36:46;;;;;;;9.73;1.73;;;10.50;1.00;;;;;;5069785;28;20449;-53
2022/11/02 06:39:11;;;;;;;10.77;2.00;;;10.60;1.00;;;;;;5069513;28;20844;-53
2022/11/02 06:41:37;;;;;;;5.15;1.27;;;10.80;1.00;;;;;;5070075;28;20447;-53
2022/11/02 06:44:03;;;;;;;5.43;1.50;;;11.00;99.90;;;;;;5069598;28;20411;-53
2022/11/02 06:46:28;;;;;;;8.10;1.60;;;11.10;99.90;;;;;;5070014;28;20452;-51
2022/11/02 06:48:54;;;;;;;6.67;1.60;;;11.50;99.90;;;;;;5068744;28;20384;-51
2022/11/02 06:51:20;;;;;;;6.25;1.80;;;11.80;99.90;;;;;;5069816;28;20801;-51
2022/11/02 06:53:45;;;;;;;9.88;2.60;;;12.10;99.90;;;;;;5070011;28;20377;-51
2022/11/02 06:56:11;;;;;;;7.10;1.93;;;12.40;1.00;;;;;;5068749;28;20477;-51
2022/11/02 06:58:37;;;;;;;10.95;2.35;;;12.40;99.90;;;;;;5069589;28;20379;-51
2022/11/02 07:01:06;;;;;;;9.80;1.67;;;12.40;1.00;;;;;;5068988;28;20433;-51
2022/11/02 07:03:31;;;;;;;8.45;1.58;;;12.30;1.00;;;;;;5066716;28;20455;-54
2022/11/02 07:05:58;;;;;;;7.90;1.40;;;12.30;1.00;;;;;;5056392;28;20998;-52
2022/11/02 07:08:25;;;;;;;7.85;1.70;;;11.40;1.00;;;;;;5069924;28;20466;-52
2022/11/02 07:10:50;;;;;;;8.63;1.70;;;12.40;99.90;;;;;;5068924;28;20384;-54
2022/11/02 07:13:16;;;;;;;8.00;1.80;;;12.30;99.90;;;;;;5069940;28;20691;-51
2022/11/02 07:15:42;;;;;;;7.53;1.60;;;12.30;1.00;;;;;;5069386;28;20443;-51
2022/11/02 07:18:07;;;;;;;10.43;2.77;;;12.20;1.00;;;;;;5068627;28;21015;-51
2022/11/02 07:20:35;;;;;;;11.77;2.55;;;12.10;99.90;;;;;;5069172;28;20390;-51
2022/11/02 07:23:01;;;;;;;9.05;1.95;;;12.20;1.00;;;;;;5068494;28;20388;-51
2022/11/02 07:25:31;;;;;;;7.13;1.67;;;12.20;1.00;;;;;;5068851;28;20907;-52
2022/11/02 07:28:01;;;;;;;7.45;1.40;;;12.30;1.00;;;;;;5068998;28;20382;-51
2022/11/02 07:30:31;;;;;;;6.10;1.50;;;12.50;1.00;;;;;;5069183;28;20384;-51
2022/11/02 07:32:57;;;;;;;5.85;1.40;;;12.50;1.00;;;;;;5068309;28;20880;-57
2022/11/02 07:35:23;;;;;;;7.15;1.50;;;12.50;99.90;;;;;;5068743;28;20403;-52
2022/11/02 07:38:00;;;;;;;7.13;1.70;;;12.50;99.90;;;;;;5051191;28;20391;-56
2022/11/02 07:40:27;;;;;;;8.63;1.40;;;12.50;99.90;;;;;;5071406;28;20383;-52
2022/11/02 07:42:53;;;;;;;10.00;1.80;;;12.60;99.90;;;;;;5072227;28;20468;-53
2022/11/02 07:45:20;;;;;;;5.47;1.25;;;12.60;99.90;;;;;;5073044;28;20429;-52
2022/11/02 07:47:48;;;;;;;5.70;1.50;;;12.80;99.90;;;;;;5073001;28;20383;-52
2022/11/02 07:50:17;;;;;;;8.20;1.60;;;12.90;99.90;;;;;;5071994;28;20522;-51
2022/11/02 07:52:45;;;;;;;8.07;1.80;;;13.00;78.30;;;;;;5072851;28;20394;-52
2022/11/02 07:55:11;;;;;;;5.88;1.50;;;13.00;1.00;;;;;;5071858;28;20573;-52
2022/11/02 07:57:37;;;;;;;7.85;1.40;;;13.30;99.90;;;;;;5072598;28;20383;-52
2022/11/02 08:00:03;;;;;;;9.20;1.83;;;13.60;1.00;;;;;;5071980;28;20858;-52
2022/11/02 08:02:29;;;;;;;7.28;1.55;;;13.90;99.90;;;;;;5072616;28;20409;-52
2022/11/02 08:04:54;;;;;;;8.00;1.37;;;14.30;1.00;;;;;;5072284;28;20475;-52
2022/11/02 08:07:20;;;;;;;8.37;1.80;;;14.70;99.90;;;;;;5072675;28;20380;-52
2022/11/02 08:09:45;;;;;;;6.63;1.38;;;14.80;99.90;;;;;;5073138;28;20395;-52
2022/11/02 08:12:11;;;;;;;7.45;1.45;;;15.10;1.00;;;;;;5071050;28;20849;-52
2022/11/02 08:14:37;;;;;;;6.10;1.40;;;15.30;99.90;;;;;;5071676;28;20479;-51
2022/11/02 08:17:02;;;;;;;6.67;1.70;;;15.30;99.90;;;;;;5071647;28;20387;-52
2022/11/02 08:19:34;;;;;;;6.80;1.60;;;15.60;1.00;;;;;;5069403;28;20438;-52
2022/11/02 08:21:59;;;;;;;8.57;1.60;;;16.00;1.00;;;;;;5068261;28;20437;-52
2022/11/02 08:24:25;;;;;;;7.10;1.90;;;16.10;1.00;;;;;;5072010;28;20510;-52
2022/11/02 08:26:50;;;;;;;8.60;1.70;;;16.40;1.00;;;;;;5069628;28;20394;-55
2022/11/02 08:29:16;;;;;;;6.87;1.10;;;16.70;99.90;;;;;;5067658;28;20869;-53
2022/11/02 08:31:42;;;;;;;6.70;1.47;;;16.60;99.90;;;;;;5069869;28;20397;-52
2022/11/02 08:34:08;;;;;;;5.67;1.30;;;16.60;99.90;;;;;;5068289;28;20388;-52
2022/11/02 08:36:37;;;;;;;6.20;1.30;;;16.40;99.90;;;;;;5069430;28;20825;-52
2022/11/02 08:39:02;;;;;;;8.20;1.60;;;16.30;99.90;;;;;;5071068;28;20380;-52
2022/11/02 08:41:28;;;;;;;12.75;1.60;;;16.20;99.90;;;;;;5069978;28;20417;-53
2022/11/02 08:43:54;;;;;;;6.53;1.50;;;16.30;99.90;;;;;;5066264;28;20483;-53
2022/11/02 08:46:19;;;;;;;6.43;1.60;;;16.00;99.90;;;;;;5067912;28;20526;-52
2022/11/02 08:48:45;;;;;;;10.20;1.90;;;16.00;99.90;;;;;;5060131;28;20393;-53
2022/11/02 08:51:11;;;;;;;13.45;2.10;;;15.80;99.90;;;;;;5050844;28;20885;-54
2022/11/02 08:53:36;;;;;;;12.30;1.98;;;15.50;99.90;;;;;;5063823;28;20477;-52
2022/11/02 08:56:02;;;;;;;6.70;1.40;;;15.30;99.90;;;;;;5070824;28;20412;-52
2022/11/02 08:58:28;;;;;;;6.00;1.10;;;15.20;99.90;;;;;;5071737;28;20532;-52
2022/11/02 09:00:54;;;;;;;7.55;1.40;;;15.00;99.90;;;;;;5070731;28;20482;-52
2022/11/02 09:03:22;;;;;;;7.25;1.48;;;15.30;99.90;;;;;;5071656;28;20432;-52
2022/11/02 09:05:47;;;;;;;6.40;1.10;;;15.30;99.90;;;;;;5066081;28;20411;-53
2022/11/02 09:08:18;;;;;;;10.40;1.60;;;15.10;99.90;;;;;;5068724;28;20430;-53
2022/11/02 09:10:48;;;;;;;8.43;1.17;;;15.20;99.90;;;;;;5068539;28;20387;-53
2022/11/02 09:13:17;;;;;;;9.23;2.78;;;14.80;99.90;;;;;;5068758;28;20396;-52
2022/11/02 09:15:42;;;;;;;8.55;1.55;;;15.00;99.90;;;;;;5068714;28;20436;-53
2022/11/02 09:18:08;;;;;;;8.55;1.70;;;15.00;99.90;;;;;;5070550;28;20881;-52
2022/11/02 09:20:35;;;;;;;6.38;1.55;;;15.10;99.90;;;;;;5071472;28;20391;-52
2022/11/02 09:23:00;;;;;;;7.82;1.80;;;15.10;99.90;;;;;;5070320;28;20820;-53
2022/11/02 09:25:26;;;;;;;7.70;1.40;;;15.10;99.90;;;;;;5071044;28;20392;-52
2022/11/02 09:27:53;;;;;;;9.30;1.80;;;15.20;99.90;;;;;;5070720;28;20803;-55
2022/11/02 09:30:20;;;;;;;10.60;1.40;;;15.20;99.90;;;;;;5068319;28;20811;-53
2022/11/02 09:32:53;;;;;;;9.15;1.70;;;15.10;99.90;;;;;;5069889;28;20403;-52
2022/11/02 09:35:18;;;;;;;5.45;1.00;;;15.10;99.90;;;;;;5068782;28;20442;-52
2022/11/02 09:37:44;;;;;;;8.57;1.57;;;15.20;94.70;;;;;;5065866;28;20391;-53
2022/11/02 09:40:10;;;;;;;9.15;1.42;;;15.30;91.00;;;;;;5069651;28;21007;-53
2022/11/02 09:42:56;;;;;;;7.70;1.20;;;15.50;86.20;;;;;;5070046;28;20740;-52
2022/11/02 09:45:22;;;;;;;11.35;1.73;;;15.30;31.70;;;;;;5067331;28;20423;-52
2022/11/02 09:48:04;;;;;;;5.57;1.00;;;15.30;69.70;;;;;;5070076;28;20390;-52
2022/11/02 09:50:45;;;;;;;6.65;1.30;;;15.20;67.00;;;;;;5070449;28;20383;-53
2022/11/02 09:53:17;;;;;;;11.63;1.47;;;15.30;90.40;;;;;;5069020;28;20459;-53
2022/11/02 09:55:51;;;;;;;6.50;1.10;;;15.50;56.90;;;;;;5072888;28;20439;-53
2022/11/02 09:58:23;;;;;;;5.60;1.20;;;15.70;23.30;;;;;;5043334;28;20393;-54
2022/11/02 10:00:54;;;;;;;10.55;1.40;;;15.80;1.00;;;;;;5063870;28;20387;-54
2022/11/02 10:03:29;;;;;;;7.32;1.20;;;15.80;1.00;;;;;;5069025;28;20408;-54
2022/11/02 10:06:14;;;;;;;10.05;1.27;;;15.80;1.00;;;;;;5072723;28;20378;-53
2022/11/02 10:09:09;;;;;;;8.00;1.35;;;15.80;1.00;;;;;;5073924;28;20384;-53
2022/11/02 10:11:51;;;;;;;7.35;1.27;;;15.60;1.00;;;;;;5064857;28;20390;-53
2022/11/02 10:14:28;;;;;;;9.18;1.13;;;15.40;1.00;;;;;;5071596;28;20394;-53
2022/11/02 10:16:56;;;;;;;6.47;1.40;;;15.40;1.00;;;;;;5066013;28;20406;-56
2022/11/02 10:19:23;;;;;;;6.85;1.75;;;15.50;1.00;;;;;;5069579;28;20395;-53
2022/11/02 10:21:55;;;;;;;6.13;1.33;;;15.50;1.00;;;;;;5070256;28;20384;-53
2022/11/02 10:24:38;;;;;;;7.38;1.40;;;15.50;1.00;;;;;;5069978;28;20411;-53
2022/11/02 10:27:11;;;;;;;9.18;1.88;;;15.40;1.00;;;;;;5069481;28;20477;-53
2022/11/02 10:29:52;;;;;;;8.68;1.83;;;15.60;1.00;;;;;;5062020;28;20420;-53
2022/11/02 10:32:17;;;;;;;9.88;1.70;;;15.60;1.00;;;;;;5054892;28;20920;-53
2022/11/02 10:34:44;;;;;;;9.17;1.70;;;15.70;1.00;;;;;;5066631;28;20417;-53
2022/11/02 10:37:19;;;;;;;10.27;1.50;;;15.60;1.00;;;;;;5068647;28;20382;-53
2022/11/02 10:40:02;;;;;;;8.50;1.30;;;15.50;1.00;;;;;;5069254;28;20502;-53
2022/11/02 10:42:56;;;;;;;11.52;1.70;;;15.50;1.00;;;;;;5068786;28;20883;-53
2022/11/02 10:45:54;;;;;;;8.57;1.23;;;15.40;1.00;;;;;;5067777;28;20714;-53
2022/11/02 10:48:42;;;;;;;9.30;1.50;;;15.60;1.00;;;;;;5069254;28;20384;-53
2022/11/02 10:51:11;;;;;;;8.02;1.20;;;15.70;1.00;;;;;;5066670;28;20402;-54
2022/11/02 10:53:48;;;;;;;11.07;1.30;;;16.00;1.00;;;;;;5067093;28;20718;-53
2022/11/02 10:56:32;;;;;;;10.30;1.70;;;16.60;1.00;;;;;;5065906;28;20410;-53
2022/11/02 10:59:14;;;;;;;7.75;1.13;;;17.40;1.00;;;;;;5066600;28;20384;-54
2022/11/02 11:02:05;;;;;;;7.90;1.33;;;17.40;1.00;;;;;;5067895;28;20436;-53
2022/11/02 11:04:32;;;;;;;9.10;1.60;;;17.20;1.00;;;;;;5068748;28;20399;-54
2022/11/02 11:07:05;;;;;;;10.23;1.50;;;17.30;1.00;;;;;;5068536;28;20376;-54
2022/11/02 11:09:52;;;;;;;9.05;1.60;;;17.50;1.00;;;;;;5065927;28;20478;-54
2022/11/02 11:12:24;;;;;;;7.70;1.35;;;17.60;1.00;;;;;;5064446;28;20388;-53
2022/11/02 11:15:01;;;;;;;10.05;1.60;;;17.50;1.00;;;;;;5065886;28;20508;-54
2022/11/02 11:17:38;;;;;;;6.95;1.48;;;17.20;1.00;;;;;;5067819;28;20399;-53
2022/11/02 11:20:23;;;;;;;8.55;1.38;;;17.30;1.00;;;;;;5070166;28;20917;-54
2022/11/02 11:23:24;;;;;;;13.65;1.50;;;17.50;1.00;;;;;;5067060;28;20456;-55
2022/11/02 11:26:04;;;;;;;10.75;1.63;;;17.70;1.00;;;;;;5069825;28;20744;-54
2022/11/02 11:28:41;;;;;;;8.30;1.40;;;18.10;1.00;;;;;;5070430;28;20392;-54
2022/11/02 11:31:10;;;;;;;9.35;1.83;;;18.30;1.00;;;;;;5072023;28;20433;-54
2022/11/02 11:34:02;;;;;;;8.85;1.45;;;18.40;1.00;;;;;;5073287;28;20860;-54
2022/11/02 11:36:33;;;;;;;7.35;1.40;;;18.30;1.00;;;;;;5068676;28;20447;-54
2022/11/02 11:39:24;;;;;;;9.23;1.33;;;17.80;1.00;;;;;;5072869;28;20403;-54
2022/11/02 11:41:50;;;;;;;9.30;1.58;;;17.50;1.00;;;;;;5073283;28;20764;-54
2022/11/02 11:44:16;;;;;;;8.00;1.10;;;17.20;1.00;;;;;;5072829;28;20375;-54
2022/11/02 11:46:47;;;;;;;5.60;1.17;;;17.40;1.00;;;;;;5073587;28;20384;-54
2022/11/02 11:49:31;;;;;;;10.48;1.20;;;17.40;99.90;;;;;;5091329;28;20958;-52
2022/11/02 11:51:59;;;;;;;7.45;1.48;;;17.40;99.90;;;;;;5092668;28;20388;-53
2022/11/02 11:54:26;;;;;;;11.48;1.25;;;17.20;99.90;;;;;;5092852;28;20377;-53
2022/11/02 11:56:57;;;;;;;8.85;1.30;;;17.00;1.00;;;;;;5092744;28;20402;-57
2022/11/02 11:59:30;;;;;;;8.45;1.50;;;17.30;99.90;;;;;;5093067;28;20397;-54
2022/11/02 12:02:00;;;;;;;7.30;1.20;;;17.50;99.90;;;;;;5092062;28;20757;-55
2022/11/02 12:04:34;;;;;;;6.05;0.93;;;17.90;99.90;;;;;;5092767;28;20397;-54
2022/11/02 12:07:24;;;;;;;9.70;1.83;;;17.90;99.90;;;;;;5092130;28;20383;-54
2022/11/02 12:10:18;;;;;;;7.60;1.30;;;17.90;99.90;;;;;;5092924;28;20373;-54
2022/11/02 12:12:44;;;;;;;8.90;1.38;;;17.70;99.90;;;;;;5087313;28;20897;-53
2022/11/02 12:15:23;;;;;;;10.07;1.60;;;17.40;99.90;;;;;;5074022;28;20396;-54
2022/11/02 12:18:22;;;;;;;7.75;1.40;;;17.60;99.90;;;;;;5079755;28;20390;-54
2022/11/02 12:21:20;;;;;;;7.25;1.00;;;17.90;99.90;;;;;;5073051;28;20398;-54
2022/11/02 12:23:55;;;;;;;8.85;1.40;;;17.60;99.90;;;;;;5070256;28;20437;-54
2022/11/02 12:26:23;;;;;;;6.37;1.30;;;17.50;99.90;;;;;;5069419;28;20399;-54
2022/11/02 12:29:03;;;;;;;7.72;1.40;;;17.50;99.90;;;;;;5053724;28;20489;-54
2022/11/02 12:31:36;;;;;;;7.18;1.45;;;17.70;99.90;;;;;;5072234;28;20486;-54
2022/11/02 12:34:27;;;;;;;7.07;1.50;;;17.90;99.90;;;;;;5065976;28;20419;-54
2022/11/02 12:37:14;;;;;;;9.38;1.50;;;17.70;99.90;;;;;;5069511;28;20411;-56
2022/11/02 12:40:02;;;;;;;8.50;1.52;;;17.80;99.90;;;;;;5071622;28;20920;-55
2022/11/02 12:42:36;;;;;;;7.68;1.70;;;18.10;99.90;;;;;;5071941;28;20379;-54
2022/11/02 12:45:36;;;;;;;10.88;1.30;;;18.30;99.90;;;;;;5069648;28;20401;-54
2022/11/02 12:48:08;;;;;;;11.30;1.30;;;18.50;99.90;;;;;;5060939;28;20405;-54
2022/11/02 12:50:42;;;;;;;9.93;1.20;;;18.60;99.90;;;;;;5071456;28;20380;-55
2022/11/02 12:53:29;;;;;;;10.57;1.80;;;18.70;99.90;;;;;;5070508;28;20372;-51
2022/11/02 12:55:59;;;;;;;10.48;1.63;;;18.80;99.90;;;;;;5068616;28;20956;-54
2022/11/02 12:58:35;;;;;;;6.45;1.10;;;18.50;99.90;;;;;;5071283;28;20392;-54
2022/11/02 13:01:07;;;;;;;6.22;1.30;;;18.20;99.90;;;;;;5071077;28;20378;-54
2022/11/02 13:04:04;;;;;;;8.38;1.67;;;18.20;99.90;;;;;;5071373;28;20457;-54
2022/11/02 13:06:52;;;;;;;7.10;1.20;;;18.40;99.90;;;;;;5065511;28;20396;-54
2022/11/02 13:09:26;;;;;;;7.78;1.60;;;18.30;99.90;;;;;;5071034;28;20388;-54
2022/11/02 13:12:01;;;;;;;7.20;1.60;;;18.00;99.90;;;;;;5071527;28;20392;-54
2022/11/02 13:14:33;;;;;;;8.30;1.30;;;18.20;99.90;;;;;;5053149;28;20478;-52
2022/11/02 13:17:05;;;;;;;15.13;1.98;;;18.40;99.90;;;;;;5070703;28;20436;-52
2022/11/02 13:19:46;;;;;;;10.68;1.83;;;18.50;99.90;;;;;;5071461;28;20380;-52
2022/11/02 13:22:12;;;;;;;9.65;1.42;;;18.50;99.90;;;;;;5070407;28;20796;-52